createdAt,value
2022-11-17T00:00:25.316Z,2.20
2022-11-17T00:02:51.732Z,1.50
2022-11-17T00:05:18.322Z,1.33
2022-11-17T00:07:45.596Z,1.80
2022-11-17T00:10:12.929Z,1.80
2022-11-17T00:12:57.676Z,1.73
2022-11-17T00:15:24.053Z,1.75
2022-11-17T00:18:10.465Z,1.92
2022-11-17T00:21:01.335Z,1.85
2022-11-17T00:23:47.193Z,1.92
2022-11-17T00:26:17.692Z,2.25
2022-11-17T00:28:44.233Z,2.10
2022-11-17T00:31:29.880Z,1.90
2022-11-17T00:34:05.492Z,1.85
2022-11-17T00:36:36.941Z,2.22
2022-11-17T00:39:03.732Z,2.22
2022-11-17T00:41:30.161Z,2.00
2022-11-17T00:43:56.475Z,2.10
2022-11-17T00:46:22.859Z,2.42
2022-11-17T00:48:49.159Z,2.20
2022-11-17T00:51:15.474Z,2.72
2022-11-17T00:53:41.768Z,2.40
2022-11-17T00:56:08.097Z,2.50
2022-11-17T00:58:35.516Z,2.90
2022-11-17T01:01:02.154Z,2.38
2022-11-17T01:03:28.476Z,2.03
2022-11-17T01:05:54.907Z,2.30
2022-11-17T01:08:21.241Z,2.30
2022-11-17T01:10:47.529Z,2.78
2022-11-17T01:13:13.880Z,2.65
2022-11-17T01:15:40.156Z,2.35
2022-11-17T01:18:06.436Z,2.53
2022-11-17T01:20:33.215Z,2.45
2022-11-17T01:22:59.515Z,2.03
2022-11-17T01:25:25.811Z,2.70
2022-11-17T01:27:52.136Z,2.70
2022-11-17T01:30:18.498Z,3.00
2022-11-17T01:32:44.812Z,2.10
2022-11-17T01:35:11.355Z,2.45
2022-11-17T01:37:37.707Z,2.78
2022-11-17T01:40:04.601Z,2.83
2022-11-17T01:42:31.529Z,3.40
2022-11-17T01:44:59.668Z,2.30
2022-11-17T01:47:35.400Z,2.60
2022-11-17T01:50:04.561Z,2.70
2022-11-17T01:52:31.780Z,2.70
2022-11-17T01:55:00.116Z,2.40
2022-11-17T01:57:28.810Z,3.03
2022-11-17T01:59:58.505Z,2.92
2022-11-17T02:02:24.934Z,3.50
2022-11-17T02:05:09.455Z,2.90
2022-11-17T02:07:37.708Z,3.55
2022-11-17T02:10:04.481Z,3.63
2022-11-17T02:12:31.625Z,3.95
2022-11-17T02:14:58.041Z,3.50
2022-11-17T02:17:29.523Z,3.30
2022-11-17T02:20:13.405Z,3.92
2022-11-17T02:22:58.455Z,4.22
2022-11-17T02:25:35.179Z,3.72
2022-11-17T02:28:16.697Z,3.75
2022-11-17T02:30:42.992Z,4.47
2022-11-17T02:33:15.487Z,3.60
2022-11-17T02:35:46.762Z,4.00
2022-11-17T02:38:19.265Z,4.22
2022-11-17T02:40:52.777Z,3.97
2022-11-17T02:43:39.848Z,3.13
2022-11-17T02:46:11.168Z,3.70
2022-11-17T02:48:39.718Z,3.08
2022-11-17T02:51:08.539Z,3.65
2022-11-17T02:53:35.800Z,3.83
2022-11-17T02:56:02.656Z,3.88
2022-11-17T02:58:29.039Z,3.45
2022-11-17T03:01:03.509Z,3.53
2022-11-17T03:03:44.576Z,3.20
2022-11-17T03:06:17.028Z,4.47
2022-11-17T03:08:57.287Z,5.43
2022-11-17T03:11:29.568Z,4.43
2022-11-17T03:13:59.077Z,3.53
2022-11-17T03:16:41.113Z,3.65
2022-11-17T03:19:10.560Z,4.05
2022-11-17T03:21:36.862Z,4.03
2022-11-17T03:24:11.777Z,3.45
2022-11-17T03:26:43.662Z,3.78
2022-11-17T03:29:11.672Z,2.90
2022-11-17T03:31:39.038Z,3.28
2022-11-17T03:34:06.914Z,3.50
2022-11-17T03:36:35.135Z,3.30
2022-11-17T03:39:04.636Z,3.45
2022-11-17T03:41:33.124Z,2.60
2022-11-17T03:44:01.471Z,3.03
2022-11-17T03:46:28.682Z,2.28
2022-11-17T03:48:58.109Z,2.60
2022-11-17T03:51:26.680Z,2.67
2022-11-17T03:53:53.962Z,2.63
2022-11-17T03:56:26.220Z,3.05
2022-11-17T03:58:57.954Z,2.35
2022-11-17T04:01:24.908Z,2.47
2022-11-17T04:03:51.741Z,2.45
2022-11-17T04:06:18.193Z,2.53
2022-11-17T04:08:44.523Z,2.35
2022-11-17T04:11:29.794Z,2.10
2022-11-17T04:14:14.462Z,2.85
2022-11-17T04:16:40.917Z,2.20
2022-11-17T04:19:07.309Z,2.00
2022-11-17T04:21:33.692Z,2.00
2022-11-17T04:24:00.257Z,2.10
2022-11-17T04:26:45.561Z,2.28
2022-11-17T04:29:11.960Z,2.35
2022-11-17T04:31:38.249Z,2.03
2022-11-17T04:34:05.473Z,2.17
2022-11-17T04:36:31.786Z,2.10
2022-11-17T04:38:59.404Z,2.22
2022-11-17T04:41:46.216Z,2.10
2022-11-17T04:44:13.515Z,2.47
2022-11-17T04:46:40.481Z,2.78
2022-11-17T04:49:07.301Z,2.67
2022-11-17T04:51:34.546Z,2.30
2022-11-17T04:54:01.345Z,2.60
2022-11-17T04:56:27.754Z,1.90
2022-11-17T04:58:54.229Z,1.90
2022-11-17T05:01:22.315Z,2.22
2022-11-17T05:03:53.145Z,2.00
2022-11-17T05:06:21.241Z,2.10
2022-11-17T05:08:47.856Z,2.05
2022-11-17T05:11:33.425Z,2.40
2022-11-17T05:13:59.779Z,2.00
2022-11-17T05:16:45.398Z,2.00
2022-11-17T05:19:13.241Z,1.80
2022-11-17T05:21:39.763Z,1.70
2022-11-17T05:24:06.337Z,1.60
2022-11-17T05:26:33.833Z,1.55
2022-11-17T05:29:01.103Z,1.50
2022-11-17T05:31:28.303Z,1.55
2022-11-17T05:33:54.980Z,1.60
2022-11-17T05:36:21.921Z,1.67
2022-11-17T05:38:48.741Z,1.60
2022-11-17T05:41:15.782Z,1.60
2022-11-17T05:43:42.247Z,1.35
2022-11-17T05:46:08.589Z,1.35
2022-11-17T05:48:35.123Z,1.67
2022-11-17T05:51:01.808Z,1.52
2022-11-17T05:53:28.703Z,1.50
2022-11-17T05:56:13.684Z,1.10
2022-11-17T05:58:42.215Z,1.50
2022-11-17T06:01:09.446Z,1.30
2022-11-17T06:03:39.708Z,1.20
2022-11-17T06:06:06.446Z,1.10
2022-11-17T06:08:32.744Z,1.13
2022-11-17T06:10:59.032Z,0.98
2022-11-17T06:13:29.037Z,1.23
2022-11-17T06:15:56.601Z,1.10
2022-11-17T06:18:25.111Z,1.23
2022-11-17T06:20:53.765Z,1.20
2022-11-17T06:23:22.037Z,0.98
2022-11-17T06:25:50.391Z,1.10
2022-11-17T06:28:18.616Z,1.08
2022-11-17T06:30:44.953Z,1.15
2022-11-17T06:33:12.790Z,1.08
2022-11-17T06:35:39.884Z,1.00
2022-11-17T06:38:06.172Z,0.85
2022-11-17T06:40:32.503Z,1.00
2022-11-17T06:43:11.189Z,1.48
2022-11-17T06:45:41.240Z,0.70
2022-11-17T06:48:08.402Z,0.70
2022-11-17T06:50:34.875Z,1.00
2022-11-17T06:53:02.270Z,1.23
2022-11-17T06:55:28.746Z,1.20
2022-11-17T06:58:02.522Z,0.90
2022-11-17T07:00:29.668Z,1.40
2022-11-17T07:02:59.707Z,0.80
2022-11-17T07:05:26.273Z,1.00
2022-11-17T07:07:52.604Z,1.27
2022-11-17T07:10:18.908Z,0.70
2022-11-17T07:12:45.791Z,0.70
2022-11-17T07:15:12.136Z,0.60
2022-11-17T07:17:38.512Z,0.90
2022-11-17T07:20:06.119Z,0.80
2022-11-17T07:22:32.610Z,0.85
2022-11-17T07:24:58.934Z,0.70
2022-11-17T07:27:25.287Z,0.70
2022-11-17T07:29:51.620Z,1.10
2022-11-17T07:32:17.974Z,0.90
2022-11-17T07:34:44.316Z,0.80
2022-11-17T07:37:10.691Z,1.70
2022-11-17T07:39:37.199Z,1.20
2022-11-17T07:42:03.770Z,1.05
2022-11-17T07:44:30.534Z,1.02
2022-11-17T07:46:56.879Z,1.23
2022-11-17T07:49:23.566Z,1.50
2022-11-17T07:51:49.986Z,1.45
2022-11-17T07:54:16.344Z,1.63
2022-11-17T07:56:42.755Z,1.58
2022-11-17T07:59:09.105Z,1.33
2022-11-17T08:01:35.688Z,2.13
2022-11-17T08:04:02.189Z,1.63
2022-11-17T08:06:28.731Z,2.08
2022-11-17T08:08:55.213Z,1.42
2022-11-17T08:11:21.682Z,1.30
2022-11-17T08:13:49.949Z,1.70
2022-11-17T08:16:16.702Z,2.10
2022-11-17T08:18:48.835Z,1.40
2022-11-17T08:21:18.795Z,2.30
2022-11-17T08:23:45.260Z,1.50
2022-11-17T08:26:11.910Z,1.52
2022-11-17T08:28:38.861Z,1.45
2022-11-17T08:31:06.565Z,1.20
2022-11-17T08:33:33.305Z,1.17
2022-11-17T08:36:00.136Z,0.93
2022-11-17T08:38:29.063Z,1.30
2022-11-17T08:40:58.884Z,1.25
2022-11-17T08:43:25.476Z,1.83
2022-11-17T08:45:51.802Z,1.35
2022-11-17T08:48:18.156Z,1.10
2022-11-17T08:50:44.812Z,1.50
2022-11-17T08:53:13.302Z,1.45
2022-11-17T08:55:41.210Z,1.05
2022-11-17T08:58:08.115Z,1.15
2022-11-17T09:00:34.702Z,1.40
2022-11-17T09:03:01.061Z,1.20
2022-11-17T09:05:28.243Z,1.27
2022-11-17T09:07:54.837Z,1.10
2022-11-17T09:10:21.312Z,1.10
2022-11-17T09:12:47.637Z,1.10
2022-11-17T09:15:14.025Z,1.13
2022-11-17T09:17:42.933Z,0.82
2022-11-17T09:20:09.499Z,0.70
2022-11-17T09:22:35.907Z,0.70
2022-11-17T09:25:02.222Z,0.45
2022-11-17T09:27:28.552Z,0.60
2022-11-17T09:29:55.061Z,0.80
2022-11-17T09:32:21.383Z,0.70
2022-11-17T09:34:47.983Z,0.70
2022-11-17T09:37:14.579Z,1.15
2022-11-17T09:39:40.895Z,0.60
2022-11-17T09:42:13.192Z,1.08
2022-11-17T09:44:45.833Z,0.80
2022-11-17T09:47:31.034Z,1.33
2022-11-17T09:50:05.655Z,0.77
2022-11-17T09:52:46.554Z,1.08
2022-11-17T09:55:15.938Z,0.98
2022-11-17T09:57:45.501Z,0.95
2022-11-17T10:00:19.212Z,0.90
2022-11-17T10:02:46.035Z,0.88
2022-11-17T10:05:31.286Z,0.90
2022-11-17T10:08:00.645Z,0.90
2022-11-17T10:10:35.361Z,1.10
2022-11-17T10:13:03.104Z,0.80
2022-11-17T10:15:33.443Z,0.82
2022-11-17T10:17:59.912Z,0.60
2022-11-17T10:20:26.241Z,1.00
2022-11-17T10:22:53.798Z,0.80
2022-11-17T10:25:33.917Z,1.02
2022-11-17T10:28:00.232Z,1.05
2022-11-17T10:30:26.524Z,0.85
2022-11-17T10:32:54.001Z,0.80
2022-11-17T10:35:23.803Z,0.57
2022-11-17T10:37:55.595Z,0.50
2022-11-17T10:40:26.937Z,0.60
2022-11-17T10:43:04.699Z,0.60
2022-11-17T10:45:32.465Z,0.93
2022-11-17T10:48:09.759Z,1.27
2022-11-17T10:50:36.463Z,1.08
2022-11-17T10:53:20.997Z,1.23
2022-11-17T10:55:53.178Z,0.80
2022-11-17T10:58:23.917Z,1.00
2022-11-17T11:01:01.777Z,1.05
2022-11-17T11:03:29.656Z,1.10
2022-11-17T11:06:00.957Z,0.70
2022-11-17T11:08:31.447Z,0.73
2022-11-17T11:10:58.775Z,1.08
2022-11-17T11:13:25.511Z,1.15
2022-11-17T11:15:53.291Z,0.85
2022-11-17T11:18:19.985Z,0.93
2022-11-17T11:20:59.975Z,0.90
2022-11-17T11:23:26.251Z,0.85
2022-11-17T11:25:57.072Z,1.00
2022-11-17T11:28:26.139Z,1.10
2022-11-17T11:31:11.422Z,1.00
2022-11-17T11:33:50.242Z,2.40
2022-11-17T11:36:19.711Z,1.80
2022-11-17T11:38:49.079Z,1.30
2022-11-17T11:41:19.240Z,1.08
2022-11-17T11:43:57.377Z,1.10
2022-11-17T11:46:39.081Z,0.90
2022-11-17T11:49:26.369Z,0.80
2022-11-17T11:51:52.899Z,1.15
2022-11-17T11:54:38.176Z,1.52
2022-11-17T11:57:09.072Z,0.95
2022-11-17T11:59:41.438Z,0.90
2022-11-17T12:02:10.968Z,1.35
2022-11-17T12:05:13.246Z,1.40
2022-11-17T12:07:43.595Z,1.05
2022-11-17T12:10:19.906Z,1.65
2022-11-17T12:12:46.598Z,0.98
2022-11-17T12:15:18.685Z,0.70
2022-11-17T12:18:04.191Z,1.20
2022-11-17T12:20:30.450Z,1.20
2022-11-17T12:23:02.568Z,1.30
2022-11-17T12:25:30.095Z,1.88
2022-11-17T12:27:56.468Z,2.25
2022-11-17T12:30:36.740Z,1.30
2022-11-17T12:33:04.807Z,1.50
2022-11-17T12:35:31.140Z,1.30
2022-11-17T12:38:12.922Z,1.50
2022-11-17T12:40:39.229Z,1.60
2022-11-17T12:43:14.818Z,1.15
2022-11-17T12:46:01.436Z,1.42
2022-11-17T12:48:35.364Z,0.82
2022-11-17T12:51:20.752Z,1.20
2022-11-17T12:54:02.712Z,1.58
2022-11-17T12:56:44.783Z,0.70
2022-11-17T13:01:43.847Z,0.70
2022-11-17T13:04:14.791Z,1.00
2022-11-17T13:07:01.720Z,0.80
2022-11-17T13:09:33.462Z,0.90
2022-11-17T13:12:04.496Z,1.33
2022-11-17T13:14:32.142Z,0.70
2022-11-17T13:17:00.325Z,0.75
2022-11-17T13:19:34.434Z,0.70
2022-11-17T13:22:01.984Z,0.60
2022-11-17T13:24:30.486Z,0.80
2022-11-17T13:27:00.606Z,0.80
2022-11-17T13:29:27.057Z,0.80
2022-11-17T13:32:11.656Z,0.70
2022-11-17T13:34:45.379Z,0.70
2022-11-17T13:37:15.203Z,0.60
2022-11-17T13:39:53.311Z,0.30
2022-11-17T13:42:20.051Z,0.60
2022-11-17T13:44:46.731Z,1.10
2022-11-17T13:47:20.855Z,0.93
2022-11-17T13:49:47.729Z,1.20
2022-11-17T13:52:40.515Z,0.95
2022-11-17T13:55:10.504Z,0.82
2022-11-17T13:57:37.251Z,0.75
2022-11-17T14:00:04.378Z,0.90
2022-11-17T14:02:30.780Z,0.93
2022-11-17T14:05:09.314Z,0.80
2022-11-17T14:07:36.805Z,0.80
2022-11-17T14:10:12.929Z,1.02
2022-11-17T14:12:39.371Z,0.80
2022-11-17T14:15:38.541Z,1.02
2022-11-17T14:18:37.620Z,0.90
2022-11-17T14:21:12.173Z,0.95
2022-11-17T14:23:38.952Z,1.13
2022-11-17T14:26:05.714Z,0.80
2022-11-17T14:28:32.056Z,0.90
2022-11-17T14:30:58.378Z,0.82
2022-11-17T14:33:24.874Z,0.93
2022-11-17T14:35:52.995Z,1.00
2022-11-17T14:38:20.050Z,0.93
2022-11-17T14:40:46.700Z,0.90
2022-11-17T14:43:13.128Z,0.80
2022-11-17T14:45:39.414Z,1.40
2022-11-17T14:48:08.710Z,1.48
2022-11-17T14:50:35.415Z,0.70
2022-11-17T14:53:01.702Z,0.60
2022-11-17T14:55:28.067Z,0.60
2022-11-17T14:57:54.631Z,0.75
2022-11-17T15:00:21.153Z,0.95
2022-11-17T15:02:47.739Z,1.08
2022-11-17T15:05:14.777Z,0.70
2022-11-17T15:07:41.145Z,0.60
2022-11-17T15:10:08.192Z,0.70
2022-11-17T15:12:35.033Z,0.75
2022-11-17T15:15:01.440Z,1.10
2022-11-17T15:17:28.288Z,1.40
2022-11-17T15:19:54.903Z,0.93
2022-11-17T15:22:21.387Z,1.95
2022-11-17T15:24:47.818Z,0.93
2022-11-17T15:27:14.433Z,0.47
2022-11-17T15:29:40.880Z,0.60
2022-11-17T15:32:07.692Z,0.50
2022-11-17T15:34:34.299Z,2.10
2022-11-17T15:37:00.579Z,1.30
2022-11-17T15:39:26.908Z,1.00
2022-11-17T15:41:53.316Z,1.00
2022-11-17T15:44:19.828Z,0.90
2022-11-17T15:46:47.831Z,0.98
2022-11-17T15:49:14.802Z,0.50
2022-11-17T15:51:41.542Z,0.40
2022-11-17T15:54:08.475Z,0.60
2022-11-17T15:56:38.525Z,0.80
2022-11-17T15:59:05.372Z,1.20
2022-11-17T16:01:33.015Z,0.95
2022-11-17T16:04:01.054Z,1.40
2022-11-17T16:06:28.320Z,1.30
2022-11-17T16:08:55.083Z,1.00
2022-11-17T16:11:22.030Z,1.70
2022-11-17T16:13:48.358Z,1.88
2022-11-17T16:16:15.252Z,1.38
2022-11-17T16:18:41.822Z,1.25
2022-11-17T16:21:10.140Z,0.82
2022-11-17T16:23:56.125Z,0.85
2022-11-17T16:26:23.641Z,0.75
2022-11-17T16:28:49.983Z,0.60
2022-11-17T16:31:20.855Z,0.50
2022-11-17T16:33:50.955Z,0.93
2022-11-17T16:36:17.804Z,1.15
2022-11-17T16:38:59.935Z,1.05
2022-11-17T16:41:28.983Z,1.30
2022-11-17T16:43:55.576Z,0.82
2022-11-17T16:46:24.992Z,0.90
2022-11-17T16:48:51.636Z,0.80
2022-11-17T16:51:18.656Z,1.35
2022-11-17T16:53:45.478Z,1.52
2022-11-17T16:56:12.424Z,2.38
2022-11-17T16:58:39.279Z,2.25
2022-11-17T17:01:12.292Z,2.33
2022-11-17T17:03:39.336Z,2.58
2022-11-17T17:06:07.283Z,1.90
2022-11-17T17:08:34.242Z,1.27
2022-11-17T17:11:11.732Z,0.93
2022-11-17T17:13:38.505Z,0.80
2022-11-17T17:16:09.308Z,0.80
2022-11-17T17:18:37.199Z,0.70
2022-11-17T17:21:03.675Z,0.50
2022-11-17T17:23:30.110Z,0.40
2022-11-17T17:26:00.171Z,0.30
2022-11-17T17:28:26.584Z,1.20
2022-11-17T17:30:53.673Z,1.30
2022-11-17T17:33:20.027Z,0.90
2022-11-17T17:35:46.315Z,1.15
2022-11-17T17:38:12.614Z,1.30
2022-11-17T17:40:38.988Z,3.10
2022-11-17T17:43:05.405Z,2.30
2022-11-17T17:45:32.042Z,2.15
2022-11-17T17:47:58.467Z,1.30
2022-11-17T17:50:24.831Z,1.38
2022-11-17T17:52:51.165Z,1.05
2022-11-17T17:55:17.519Z,0.80
2022-11-17T17:57:43.803Z,0.65
2022-11-17T18:00:10.342Z,0.60
2022-11-17T18:02:36.814Z,0.80
2022-11-17T18:05:03.890Z,0.50
2022-11-17T18:07:30.638Z,0.60
2022-11-17T18:09:57.064Z,0.90
2022-11-17T18:12:23.343Z,1.80
2022-11-17T18:14:49.771Z,2.17
2022-11-17T18:17:16.311Z,1.67
2022-11-17T18:19:42.655Z,1.90
2022-11-17T18:22:08.984Z,3.15
2022-11-17T18:24:35.368Z,2.60
2022-11-17T18:27:01.707Z,2.17
2022-11-17T18:29:28.053Z,2.75
2022-11-17T18:31:54.747Z,2.65
2022-11-17T18:34:22.467Z,2.15
2022-11-17T18:36:49.563Z,1.20
2022-11-17T18:39:16.429Z,1.25
2022-11-17T18:41:43.367Z,1.25
2022-11-17T18:44:13.879Z,1.00
2022-11-17T18:46:40.437Z,1.48
2022-11-17T18:49:06.789Z,1.10
2022-11-17T18:51:34.378Z,1.10
2022-11-17T18:54:01.940Z,1.17
2022-11-17T18:56:31.004Z,1.10
2022-11-17T18:58:57.563Z,1.00
2022-11-17T19:01:25.068Z,1.05
2022-11-17T19:03:52.435Z,0.77
2022-11-17T19:06:20.316Z,1.10
2022-11-17T19:08:48.267Z,2.20
2022-11-17T19:11:15.209Z,2.30
2022-11-17T19:13:42.023Z,2.90
2022-11-17T19:16:18.622Z,2.28
2022-11-17T19:18:45.882Z,3.80
2022-11-17T19:21:23.753Z,2.90
2022-11-17T19:23:52.105Z,2.17
2022-11-17T19:26:23.043Z,2.03
2022-11-17T19:28:49.536Z,2.10
2022-11-17T19:31:19.678Z,1.95
2022-11-17T19:33:46.832Z,1.90
2022-11-17T19:36:14.779Z,2.30
2022-11-17T19:38:42.951Z,2.22
2022-11-17T19:41:22.958Z,3.15
2022-11-17T19:43:52.147Z,2.20
2022-11-17T19:46:18.460Z,2.63
2022-11-17T19:48:45.064Z,2.20
2022-11-17T19:51:30.884Z,2.05
2022-11-17T19:54:00.531Z,1.50
2022-11-17T19:56:27.451Z,1.70
2022-11-17T19:58:54.187Z,1.80
2022-11-17T20:01:24.280Z,1.90
2022-11-17T20:03:50.795Z,1.88
2022-11-17T20:06:19.089Z,1.75
2022-11-17T20:08:45.993Z,1.50
2022-11-17T20:11:22.538Z,1.55
2022-11-17T20:13:49.273Z,1.30
2022-11-17T20:16:16.740Z,1.38
2022-11-17T20:18:43.772Z,1.10
2022-11-17T20:21:10.972Z,1.15
2022-11-17T20:23:38.609Z,1.80
2022-11-17T20:26:06.410Z,1.30
2022-11-17T20:28:33.976Z,1.30
2022-11-17T20:31:05.264Z,1.30
2022-11-17T20:33:31.539Z,1.27
2022-11-17T20:36:01.397Z,1.30
2022-11-17T20:38:27.932Z,1.20
2022-11-17T20:40:58.380Z,1.55
2022-11-17T20:43:25.082Z,1.40
2022-11-17T20:45:54.980Z,1.00
2022-11-17T20:48:22.022Z,1.40
2022-11-17T20:50:58.261Z,1.20
2022-11-17T20:53:25.005Z,0.98
2022-11-17T20:55:51.367Z,0.95
2022-11-17T20:58:17.820Z,1.10
2022-11-17T21:00:44.377Z,1.92
2022-11-17T21:03:10.736Z,1.20
2022-11-17T21:05:37.116Z,1.10
2022-11-17T21:08:03.507Z,1.60
2022-11-17T21:10:29.790Z,1.20
2022-11-17T21:12:57.192Z,0.93
2022-11-17T21:15:23.512Z,1.05
2022-11-17T21:18:08.526Z,2.25
2022-11-17T21:20:35.115Z,1.70
2022-11-17T21:23:01.452Z,4.45
2022-11-17T21:25:27.862Z,4.78
2022-11-17T21:27:54.188Z,2.95
2022-11-17T21:30:20.537Z,2.67
2022-11-17T21:32:46.921Z,2.30
2022-11-17T21:35:13.279Z,2.20
2022-11-17T21:37:39.615Z,2.80
2022-11-17T21:40:06.389Z,3.85
2022-11-17T21:42:33.154Z,2.80
2022-11-17T21:44:59.472Z,1.70
2022-11-17T21:47:25.837Z,1.20
2022-11-17T21:49:52.202Z,1.17
2022-11-17T21:52:18.494Z,1.17
2022-11-17T21:54:44.869Z,1.20
2022-11-17T21:57:11.155Z,1.00
2022-11-17T21:59:37.872Z,0.90
2022-11-17T22:02:04.264Z,0.90
2022-11-17T22:04:30.543Z,1.80
2022-11-17T22:06:56.937Z,0.80
2022-11-17T22:09:23.319Z,0.88
2022-11-17T22:11:51.359Z,0.80
2022-11-17T22:14:19.157Z,0.80
2022-11-17T22:16:47.159Z,1.13
2022-11-17T22:19:15.586Z,1.10
2022-11-17T22:21:42.487Z,1.20
2022-11-17T22:24:10.147Z,1.40
2022-11-17T22:26:38.294Z,1.55
2022-11-17T22:29:10.935Z,1.27
2022-11-17T22:31:37.624Z,1.08
2022-11-17T22:34:04.195Z,0.70
2022-11-17T22:36:30.679Z,0.60
2022-11-17T22:38:57.026Z,0.50
2022-11-17T22:41:23.588Z,0.73
2022-11-17T22:43:53.836Z,1.30
2022-11-17T22:46:21.111Z,0.88
2022-11-17T22:48:47.752Z,0.88
2022-11-17T22:51:34.607Z,0.82
2022-11-17T22:54:01.127Z,0.63
2022-11-17T22:56:27.520Z,0.57
2022-11-17T22:58:59.331Z,0.40
2022-11-17T23:01:26.212Z,0.50
2022-11-17T23:03:52.751Z,0.40
2022-11-17T23:06:19.287Z,0.40
2022-11-17T23:08:45.678Z,0.40
2022-11-17T23:11:35.975Z,0.40
2022-11-17T23:13:58.865Z,0.35
2022-11-17T23:16:25.235Z,0.30
2022-11-17T23:18:52.296Z,0.20
2022-11-17T23:21:18.663Z,0.20
2022-11-17T23:23:44.983Z,0.20
2022-11-17T23:26:12.044Z,0.20
2022-11-17T23:28:39.398Z,0.20
2022-11-17T23:31:06.976Z,0.30
2022-11-17T23:33:34.688Z,0.10
2022-11-17T23:36:02.036Z,0.22
2022-11-17T23:38:29.629Z,0.20
2022-11-17T23:41:06.749Z,0.20
2022-11-17T23:43:33.144Z,0.20
2022-11-17T23:46:04.326Z,0.17
2022-11-17T23:48:30.754Z,0.47
2022-11-17T23:50:57.176Z,0.20
2022-11-17T23:53:23.697Z,0.15
2022-11-17T23:55:53.935Z,0.20
2022-11-17T23:58:20.404Z,0.10
